Aviation Digital Data Service (ADDS)

Output produced by METARs form (1644 UTC 21 October 2014)
found at http://aviationweather.gov/adds/metars/
 
KAEX 211123Z 2112/2212 00000KT P6SM SKC 
     FM211500 05006KT P6SM SCT250 
     FM220000 VRB03KT P6SM SCT250